Stations météo

réclame
Mon MeteoGroup
Buzenol, Belgique (6484): Température de l'air & dewpoint: 19.02.2018 22:00:00 - 25.02.2018 22:00:00 (CET)Buzenol, Belgique (6484): Vitesse du vent & gusts: 19.02.2018 22:00:00 - 25.02.2018 22:00:00 (CET)Buzenol, Belgique (6484): Direction du vent: 19.02.2018 22:00:00 - 25.02.2018 22:00:00 (CET)Buzenol, Belgique (6484): reduced air pressure: 19.02.2018 22:00:00 - 25.02.2018 22:00:00 (CET)Buzenol, Belgique (6484): Ensoleillement: 19.02.2018 22:00:00 - 25.02.2018 22:00:00 (CET)Buzenol, Belgique (6484): Quantités de précipitations: 19.02.2018 22:00:00 - 25.02.2018 22:00:00 (CET)
Date & Time tt [°C] td [°C] ff [km/h] ff [knt] fx [km/h] fx [knt] dd ppp [hPa] sd [min] rr [mm]
25.02.2018 22:00:00 -3,9 -16,5 14 8 - - E 1025,7 - -
25.02.2018 21:00:00 -3,9 -17,2 13 7 33 18 E 1025,5 0 0,0
25.02.2018 20:00:00 -3,3 -17,1 16 9 31 17 ENE 1025,4 0 0,0
25.02.2018 19:00:00 -2,7 -16,9 14 8 31 17 ENE 1025,1 0 0,0
25.02.2018 18:00:00 -1,9 -16,3 23 12 38 20 E 1024,7 55 0,0
25.02.2018 17:00:00 -1,2 -16,0 18 10 40 22 E 1024,3 60 0,0
25.02.2018 16:00:00 -0,6 -16,9 23 12 42 23 ENE 1024,4 60 0,0
25.02.2018 15:00:00 -0,6 -17,8 22 12 40 22 ENE 1024,6 60 0,0
25.02.2018 14:00:00 - - - - - - - - - -
25.02.2018 13:00:00 -1,5 -16,0 25 14 45 25 E 1025,2 60 0,0
25.02.2018 12:00:00 -2,6 -15,9 26 14 60 33 E 1025,7 60 0,0
25.02.2018 11:00:00 -3,4 -15,0 27 15 51 27 ESE 1026,0 60 0,0
25.02.2018 10:00:00 -4,5 -13,8 21 11 41 22 E 1025,8 60 0,0
25.02.2018 09:00:00 -5,9 -13,2 22 12 39 21 E 1025,3 60 0,0
25.02.2018 08:00:00 -6,5 -13,3 20 11 39 21 E 1025,5 7 0,0
25.02.2018 07:00:00 -6,1 -13,0 22 12 41 22 E 1024,8 0 0,0
25.02.2018 06:00:00 -5,6 -12,8 24 13 41 22 E 1024,4 0 0,0
25.02.2018 05:00:00 -5,1 -12,5 21 11 40 21 E 1024,0 0 0,0
25.02.2018 04:00:00 -4,6 -12,4 18 10 42 23 E 1023,6 0 0,0
25.02.2018 03:00:00 -4,0 -12,2 16 9 41 22 E 1023,2 0 0,0
25.02.2018 02:00:00 -3,5 -12,1 21 11 41 22 E 1023,2 0 0,0
25.02.2018 01:00:00 -3,0 -11,7 22 12 42 23 E 1022,9 0 0,0
25.02.2018 00:00:00 -2,6 -11,1 19 10 43 23 E 1022,8 0 0,0
24.02.2018 23:00:00 -2,4 -10,6 21 12 42 23 E 1022,5 0 0,0
24.02.2018 22:00:00 -2,1 -10,3 21 11 39 21 E 1022,3 0 0,0
24.02.2018 21:00:00 -1,6 -9,5 19 10 46 25 E 1022,1 0 0,0
24.02.2018 20:00:00 -0,8 -8,4 25 14 47 26 E 1021,4 0 0,0
24.02.2018 19:00:00 0,1 -8,0 18 10 43 23 E 1020,6 0 0,0
24.02.2018 18:00:00 1,9 -9,8 21 11 45 25 E 1019,6 53 0,0
24.02.2018 17:00:00 4,2 -10,7 22 12 51 28 E 1018,6 60 0,0
24.02.2018 16:00:00 4,2 -11,7 29 16 52 28 E 1018,5 60 0,0
24.02.2018 15:00:00 3,8 -12,7 32 17 58 32 E 1018,4 60 0,0
24.02.2018 14:00:00 3,6 -13,3 29 16 63 34 ESE 1018,6 60 0,0
24.02.2018 13:00:00 2,9 -13,3 29 16 53 29 ESE 1018,7 60 0,0
24.02.2018 12:00:00 1,1 -13,6 27 15 54 29 ESE 1019,1 60 0,0
24.02.2018 11:00:00 -1,2 -11,6 24 13 52 28 E 1019,3 60 0,0
24.02.2018 10:00:00 -3,1 -11,3 23 12 41 22 E 1019,7 60 0,0
24.02.2018 09:00:00 -4,7 -10,8 21 12 37 20 E 1019,7 60 0,0
24.02.2018 08:00:00 -5,5 -10,6 16 9 35 19 E 1019,6 1 0,0
24.02.2018 07:00:00 -5,0 -10,4 22 12 40 22 E 1018,7 0 0,0
24.02.2018 06:00:00 -5,0 -10,3 24 13 40 21 E 1018,3 0 0,0
24.02.2018 05:00:00 -4,5 -10,1 22 12 39 21 ENE 1018,0 0 0,0
24.02.2018 04:00:00 -3,9 -10,3 22 12 34 18 E 1018,0 0 0,0
24.02.2018 03:00:00 -3,4 -10,4 19 10 36 20 E 1018,5 0 0,0
24.02.2018 02:00:00 -2,8 -10,7 19 11 34 19 E 1018,0 0 0,0
24.02.2018 01:00:00 -2,7 -11,0 18 10 34 19 E 1017,9 0 0,0
24.02.2018 00:00:00 -2,3 -11,2 17 9 34 19 E 1018,2 0 0,0
23.02.2018 23:00:00 -2,0 -11,3 16 9 36 19 E 1017,9 0 0,0
23.02.2018 22:00:00 -1,6 -11,2 19 11 37 20 E 1017,7 0 0,0
23.02.2018 21:00:00 -1,4 -11,0 16 8 34 19 E 1018,1 0 0,0
23.02.2018 20:00:00 -0,9 -11,0 20 11 41 22 E 1018,1 0 0,0
23.02.2018 19:00:00 -0,5 -10,9 25 14 37 20 E 1017,6 0 0,0
23.02.2018 18:00:00 0,0 -10,5 19 10 37 20 E 1017,3 51 0,0
23.02.2018 17:00:00 0,8 -9,7 22 12 38 20 ENE 1016,9 60 0,0
23.02.2018 16:00:00 1,2 -9,2 26 14 42 23 ENE 1016,9 60 0,0
23.02.2018 15:00:00 1,5 -9,1 19 11 45 25 E 1017,0 60 0,0
23.02.2018 14:00:00 0,9 -9,2 23 13 41 22 ENE 1017,5 60 0,0
23.02.2018 13:00:00 1,0 -8,3 22 12 41 22 ENE 1017,9 60 0,0
23.02.2018 12:00:00 -0,3 -9,0 20 11 40 22 E 1018,5 60 0,0
23.02.2018 11:00:00 -1,5 -9,6 22 12 44 24 E 1019,1 60 0,0
23.02.2018 10:00:00 -2,6 -9,7 21 11 35 19 E 1019,1 60 0,0
23.02.2018 09:00:00 -3,6 -9,6 14 8 36 19 E 1019,0 60 0,0
23.02.2018 08:00:00 -4,4 -9,6 16 8 36 20 ENE 1019,2 3 0,0
23.02.2018 07:00:00 -4,3 -9,3 22 12 37 20 ENE 1019,0 0 0,0
23.02.2018 06:00:00 -4,0 -9,1 19 10 33 18 ENE 1018,8 0 0,0
23.02.2018 05:00:00 -3,8 -9,1 16 8 35 19 ENE 1018,6 0 0,0
23.02.2018 04:00:00 -3,4 -9,0 19 10 - - ENE 1018,5 0 0,0
23.02.2018 03:00:00 -3,2 -8,9 18 10 33 18 ENE 1019,1 0 0,0
23.02.2018 02:00:00 -2,9 -9,0 15 8 34 19 ENE 1019,4 0 0,0
23.02.2018 01:00:00 -2,5 -8,9 18 10 36 19 ENE 1019,6 0 0,0
23.02.2018 00:00:00 -2,2 -8,5 18 10 40 22 ENE 1019,9 0 0,0
22.02.2018 23:00:00 -1,8 -8,3 21 11 36 19 ENE 1020,1 0 0,0
22.02.2018 22:00:00 -1,3 -8,3 20 11 39 21 E 1019,8 0 0,0
22.02.2018 21:00:00 -0,9 -8,3 19 11 40 21 E 1019,7 0 0,0
22.02.2018 20:00:00 -0,6 -8,1 18 10 35 19 ENE 1019,6 0 0,0
22.02.2018 19:00:00 -0,3 -8,2 18 10 45 24 E 1019,3 0 0,0
22.02.2018 18:00:00 0,7 -8,5 15 8 40 21 E 1018,8 49 0,0
22.02.2018 17:00:00 1,7 -8,2 18 10 49 26 E 1018,3 60 0,0
22.02.2018 16:00:00 2,2 -8,6 28 15 50 27 E 1018,3 60 0,0
22.02.2018 15:00:00 - - - - - - - - - -
22.02.2018 14:00:00 - - - - - - - - - -
22.02.2018 13:00:00 1,8 -9,1 25 14 50 27 E 1019,5 60 0,0
22.02.2018 12:00:00 - - - - - - - - - -
22.02.2018 11:00:00 0,2 -7,4 24 13 48 26 E 1020,1 60 0,0
22.02.2018 10:00:00 -1,1 -7,0 22 12 38 21 E 1020,5 60 0,0
22.02.2018 09:00:00 -2,3 -6,6 20 11 43 23 ENE 1020,8 53 0,0
22.02.2018 08:00:00 -3,1 -6,8 18 10 35 19 ENE 1020,8 0 0,0
22.02.2018 07:00:00 -3,2 -6,9 18 10 29 16 ENE 1020,5 0 0,0
22.02.2018 06:00:00 - - - - - - - - - -
22.02.2018 05:00:00 -2,8 -6,6 19 11 31 17 ENE 1020,5 0 0,0
22.02.2018 04:00:00 -2,5 -6,6 18 10 32 17 ENE 1020,7 0 0,0
22.02.2018 03:00:00 -2,0 -6,1 18 10 29 16 ENE 1020,9 0 0,0
22.02.2018 02:00:00 -1,6 -5,7 16 9 29 16 ENE 1021,1 0 0,0
22.02.2018 01:00:00 -1,2 -5,3 18 10 30 16 ENE 1021,3 0 0,0
22.02.2018 00:00:00 -1,1 -5,2 13 7 26 14 NE 1021,6 0 0,0
21.02.2018 23:00:00 -1,0 -5,3 12 7 26 14 NE 1021,8 0 0,0
21.02.2018 22:00:00 -0,5 -5,2 13 7 21 11 NNE 1021,8 0 0,0
21.02.2018 21:00:00 -0,1 -4,8 14 7 24 13 NNE 1021,6 0 0,0
21.02.2018 20:00:00 0,7 -4,6 12 7 28 15 NE 1021,7 0 0,0
21.02.2018 19:00:00 1,8 -4,7 14 8 27 15 NE 1021,5 0 0,0
21.02.2018 18:00:00 3,0 -4,5 13 7 27 15 NE 1020,7 47 0,0
21.02.2018 17:00:00 4,4 -4,6 16 9 34 18 NE 1020,4 60 0,0
21.02.2018 16:00:00 4,5 -4,2 16 9 33 18 NE 1020,6 60 0,0
21.02.2018 15:00:00 4,6 -4,8 19 10 32 17 ENE 1021,1 60 0,0
21.02.2018 14:00:00 - - - - - - - - - -
21.02.2018 13:00:00 2,5 -3,7 18 10 - - NE 1022,2 - -
21.02.2018 12:00:00 1,5 -3,7 18 10 36 19 E 1022,7 - -
21.02.2018 11:00:00 0,6 -3,9 22 12 32 18 E 1023,3 - -
21.02.2018 10:00:00 -1,2 -4,4 18 10 29 16 ENE 1023,9 60 0,0
21.02.2018 09:00:00 - - - - - - - - - -
21.02.2018 08:00:00 -3,2 -5,4 7 4 17 9 ENE 1023,0 0 0,0
21.02.2018 07:00:00 -3,3 -5,2 11 6 17 9 NNE 1023,1 0 0,0
21.02.2018 06:00:00 -3,0 -5,0 11 6 17 9 NNE 1022,7 0 0,0
21.02.2018 05:00:00 -2,6 -4,8 7 4 15 8 ENE 1022,1 0 0,0
21.02.2018 04:00:00 -2,9 -4,7 8 4 14 8 NNE 1022,1 0 0,0
21.02.2018 03:00:00 -2,9 -4,6 10 5 14 8 N 1022,2 0 0,0
21.02.2018 02:00:00 -1,8 -4,2 7 4 15 8 NE 1021,8 0 0,0
21.02.2018 01:00:00 -1,4 -4,0 7 4 16 8 NE 1021,3 0 0,0
21.02.2018 00:00:00 -0,8 -3,8 9 5 17 9 NNE 1020,6 0 0,0
20.02.2018 23:00:00 -1,0 -3,7 9 5 12 7 NNE 1020,4 0 0,0
20.02.2018 22:00:00 -0,5 -3,7 6 3 18 10 NNE 1020,0 0 0,0
20.02.2018 21:00:00 0,8 -2,5 8 5 16 8 NE 1019,5 0 0,0
20.02.2018 20:00:00 -0,1 -2,5 11 6 14 8 NNE 1018,9 0 0,0
20.02.2018 19:00:00 -0,8 -3,2 4 2 8 4 N 1018,7 0 0,0
20.02.2018 18:00:00 1,6 -2,6 4 2 7 4 N 1017,9 0 0,0
20.02.2018 17:00:00 2,9 -2,5 4 2 10 5 E 1017,4 0 0,0
20.02.2018 16:00:00 3,0 -3,0 7 4 15 8 N 1017,2 34 0,0
20.02.2018 15:00:00 3,3 -2,8 8 4 16 9 N 1017,8 23 0,0
20.02.2018 14:00:00 - - - - - - - - - -
20.02.2018 13:00:00 1,8 -3,2 11 6 15 8 NNE 1018,0 9 0,0
20.02.2018 12:00:00 1,2 -3,3 5 3 14 7 SE 1018,7 18 0,0
20.02.2018 11:00:00 0,5 -3,2 9 5 17 9 SE 1018,6 21 0,0
20.02.2018 10:00:00 -0,1 -2,8 7 4 14 8 ESE 1018,3 0 0,0
20.02.2018 09:00:00 -0,8 -2,8 5 3 13 7 E 1018,1 20 0,0
20.02.2018 08:00:00 -1,4 -2,8 8 5 13 7 ENE 1017,8 0 0,0
20.02.2018 07:00:00 -1,5 -2,6 7 4 10 5 ENE 1017,8 0 0,0
20.02.2018 06:00:00 -1,5 -2,3 7 4 10 5 NE 1017,8 0 0,0
20.02.2018 05:00:00 - - - - - - - - - -
20.02.2018 04:00:00 -1,7 -2,5 5 3 8 5 N 1017,7 0 0,0
20.02.2018 03:00:00 -1,4 -2,3 4 2 5 3 N 1017,6 0 0,0
20.02.2018 02:00:00 -1,1 -2,1 4 2 5 3 NNE 1017,7 0 0,0
20.02.2018 01:00:00 -1,0 -2,0 4 2 5 3 NE 1017,8 0 0,0
20.02.2018 00:00:00 -0,8 -2,0 4 2 4 2 ENE 1017,9 0 0,0
19.02.2018 23:00:00 - - - - - - - - - -
19.02.2018 22:00:00 -0,7 -2,0 0 0 4 2 N 1018,3 0 0,0

tt = Température de l'air
td = dewpoint
ff = Vitesse du vent
fx = gusts
dd = Direction du vent
ppp = reduced air pressure
sd = Ensoleillement
rr = Quantités de précipitations

stations d'obs. à proximité